createdAt,value
2022-11-22T00:00:17.490Z,97647.16
2022-11-22T00:02:44.369Z,97646.28
2022-11-22T00:05:11.757Z,97651.53
2022-11-22T00:07:39.130Z,97643.22
2022-11-22T00:10:07.138Z,97646.03
2022-11-22T00:12:34.204Z,97642.28
2022-11-22T00:15:00.915Z,97644.09
2022-11-22T00:17:27.789Z,97645.56
2022-11-22T00:19:54.394Z,97648.91
2022-11-22T00:22:20.972Z,97646.66
2022-11-22T00:24:47.923Z,97636.47
2022-11-22T00:27:14.468Z,97638.31
2022-11-22T00:29:41.068Z,97651.59
2022-11-22T00:32:07.799Z,97663.59
2022-11-22T00:34:34.547Z,97667.84
2022-11-22T00:37:01.182Z,97673.84
2022-11-22T00:39:28.022Z,97677.72
2022-11-22T00:41:54.724Z,97687.63
2022-11-22T00:44:21.297Z,97697.56
2022-11-22T00:46:47.869Z,97707.03
2022-11-22T00:49:14.449Z,97705.81
2022-11-22T00:51:41.027Z,97712.78
2022-11-22T00:54:08.166Z,97711.78
2022-11-22T00:56:35.748Z,97707.16
2022-11-22T00:59:02.414Z,97710.09
2022-11-22T01:01:29.122Z,97714.38
2022-11-22T01:03:55.732Z,97712.16
2022-11-22T01:06:22.315Z,97714.75
2022-11-22T01:08:49.060Z,97713.88
2022-11-22T01:11:17.911Z,97718.31
2022-11-22T01:13:45.020Z,97710.91
2022-11-22T01:16:13.283Z,97709.69
2022-11-22T01:18:40.108Z,97716.38
2022-11-22T01:21:06.876Z,97707.47
2022-11-22T01:23:34.561Z,97706.84
2022-11-22T01:26:01.606Z,97708.25
2022-11-22T01:28:28.349Z,97693.22
2022-11-22T01:30:55.277Z,97693.97
2022-11-22T01:33:22.038Z,97697.31
2022-11-22T01:35:48.655Z,97689.38
2022-11-22T01:38:15.541Z,97694.25
2022-11-22T01:40:42.314Z,97710.13
2022-11-22T01:43:28.797Z,97716.88
2022-11-22T01:46:02.539Z,97727.34
2022-11-22T01:48:55.998Z,97736.03
2022-11-22T01:51:45.188Z,97739.72
2022-11-22T01:54:17.408Z,97735.38
2022-11-22T01:56:48.210Z,97730.66
2022-11-22T01:59:19.326Z,97723.84
2022-11-22T02:01:46.031Z,97724.06
2022-11-22T02:04:15.840Z,97726.47
2022-11-22T02:06:54.244Z,97726.59
2022-11-22T02:09:20.917Z,97717.78
2022-11-22T02:11:51.055Z,97726.47
2022-11-22T02:14:22.341Z,97728.00
2022-11-22T02:16:49.039Z,97733.34
2022-11-22T02:19:36.657Z,97732.00
2022-11-22T02:22:29.092Z,97728.59
2022-11-22T02:25:12.833Z,97746.06
2022-11-22T02:27:40.232Z,97742.34
2022-11-22T02:30:07.431Z,97738.88
2022-11-22T02:32:34.013Z,97750.03
2022-11-22T02:35:00.622Z,97756.75
2022-11-22T02:37:32.825Z,97750.78
2022-11-22T02:40:05.125Z,97749.69
2022-11-22T02:42:33.513Z,97755.56
2022-11-22T02:45:00.122Z,97753.25
2022-11-22T02:47:26.960Z,97752.25
2022-11-22T02:49:54.192Z,97767.31
2022-11-22T02:52:20.780Z,97769.66
2022-11-22T02:54:47.314Z,97770.84
2022-11-22T02:57:14.146Z,97773.69
2022-11-22T02:59:40.843Z,97765.31
2022-11-22T03:02:07.438Z,97764.97
2022-11-22T03:04:33.987Z,97755.25
2022-11-22T03:07:02.145Z,97767.66
2022-11-22T03:09:29.632Z,97762.97
2022-11-22T03:11:56.543Z,97755.75
2022-11-22T03:14:23.662Z,97773.69
2022-11-22T03:16:50.823Z,97776.91
2022-11-22T03:19:17.555Z,97776.75
2022-11-22T03:21:44.362Z,97778.81
2022-11-22T03:24:11.897Z,97776.78
2022-11-22T03:26:38.609Z,97773.63
2022-11-22T03:29:05.546Z,97781.78
2022-11-22T03:31:32.268Z,97789.69
2022-11-22T03:33:58.875Z,97778.34
2022-11-22T03:36:25.544Z,97795.75
2022-11-22T03:38:52.153Z,97789.38
2022-11-22T03:41:18.737Z,97790.72
2022-11-22T03:43:45.328Z,97794.59
2022-11-22T03:46:19.656Z,97804.47
2022-11-22T03:48:47.327Z,97803.97
2022-11-22T03:51:14.035Z,97803.97
2022-11-22T03:53:40.707Z,97811.38
2022-11-22T03:56:07.403Z,97814.38
2022-11-22T03:58:34.265Z,97811.88
2022-11-22T04:01:01.005Z,97811.53
2022-11-22T04:03:27.766Z,97817.91
2022-11-22T04:05:54.569Z,97823.44
2022-11-22T04:08:21.202Z,97823.09
2022-11-22T04:10:51.539Z,97814.06
2022-11-22T04:13:19.296Z,97825.75
2022-11-22T04:15:45.929Z,97823.72
2022-11-22T04:18:13.980Z,97822.91
2022-11-22T04:20:59.290Z,97825.75
2022-11-22T04:23:32.250Z,97825.59
2022-11-22T04:26:00.531Z,97835.81
2022-11-22T04:28:53.620Z,97843.00
2022-11-22T04:31:32.525Z,97845.19
2022-11-22T04:33:59.114Z,97843.34
2022-11-22T04:36:25.701Z,97843.19
2022-11-22T04:38:52.290Z,97845.66
2022-11-22T04:41:18.912Z,97849.19
2022-11-22T04:44:04.050Z,97852.69
2022-11-22T04:46:31.522Z,97857.22
2022-11-22T04:48:58.151Z,97861.25
2022-11-22T04:51:43.327Z,97869.63
2022-11-22T04:54:09.876Z,97877.47
2022-11-22T04:56:36.512Z,97883.97
2022-11-22T04:59:03.205Z,97895.38
2022-11-22T05:01:29.855Z,97904.56
2022-11-22T05:03:56.525Z,97912.56
2022-11-22T05:06:23.101Z,97908.69
2022-11-22T05:08:49.712Z,97911.34
2022-11-22T05:11:16.310Z,97914.97
2022-11-22T05:13:43.436Z,97919.69
2022-11-22T05:16:13.150Z,97929.91
2022-11-22T05:18:39.922Z,97933.41
2022-11-22T05:21:08.424Z,97944.59
2022-11-22T05:23:53.943Z,97938.09
2022-11-22T05:26:29.591Z,97938.94
2022-11-22T05:28:58.193Z,97939.41
2022-11-22T05:31:27.373Z,97940.72
2022-11-22T05:33:56.236Z,97941.38
2022-11-22T05:36:23.587Z,97948.63
2022-11-22T05:38:50.868Z,97945.75
2022-11-22T05:41:17.838Z,97958.53
2022-11-22T05:43:44.546Z,97957.53
2022-11-22T05:46:24.217Z,97967.94
2022-11-22T05:48:51.970Z,97956.91
2022-11-22T05:51:20.304Z,97953.06
2022-11-22T05:53:47.753Z,97950.22
2022-11-22T05:56:18.048Z,97952.41
2022-11-22T05:58:45.066Z,97946.72
2022-11-22T06:01:23.346Z,97953.97
2022-11-22T06:03:51.334Z,97949.09
2022-11-22T06:06:18.069Z,97944.09
2022-11-22T06:08:47.907Z,97944.63
2022-11-22T06:11:17.699Z,97948.31
2022-11-22T06:13:45.685Z,97947.47
2022-11-22T06:16:13.516Z,97952.69
2022-11-22T06:18:40.463Z,97957.69
2022-11-22T06:21:10.643Z,97963.06
2022-11-22T06:23:37.209Z,97971.44
2022-11-22T06:26:06.657Z,97968.25
2022-11-22T06:28:34.990Z,97984.16
2022-11-22T06:31:11.131Z,97985.16
2022-11-22T06:33:38.807Z,97992.34
2022-11-22T06:36:13.729Z,97997.88
2022-11-22T06:38:42.033Z,98008.06
2022-11-22T06:41:19.980Z,98009.53
2022-11-22T06:43:49.558Z,98010.91
2022-11-22T06:46:19.864Z,98019.78
2022-11-22T06:48:47.139Z,98022.44
2022-11-22T06:51:19.554Z,98027.63
2022-11-22T06:53:48.882Z,98036.38
2022-11-22T06:56:24.659Z,98038.03
2022-11-22T06:58:52.715Z,98037.06
2022-11-22T07:01:25.694Z,98054.13
2022-11-22T07:03:58.061Z,98048.75
2022-11-22T07:06:33.015Z,98054.13
2022-11-22T07:09:01.218Z,98055.09
2022-11-22T07:11:30.278Z,98051.06
2022-11-22T07:14:06.622Z,98050.44
2022-11-22T07:16:35.196Z,98056.78
2022-11-22T07:19:01.799Z,98043.81
2022-11-22T07:21:28.541Z,98047.13
2022-11-22T07:23:55.765Z,98047.63
2022-11-22T07:26:25.671Z,98055.28
2022-11-22T07:28:52.459Z,98054.28
2022-11-22T07:31:19.824Z,98054.09
2022-11-22T07:33:46.703Z,98045.97
2022-11-22T07:36:21.101Z,98052.91
2022-11-22T07:38:48.613Z,98048.47
2022-11-22T07:41:16.604Z,98049.50
2022-11-22T07:43:43.531Z,98041.72
2022-11-22T07:46:29.982Z,98039.50
2022-11-22T07:48:57.547Z,98033.91
2022-11-22T07:51:24.681Z,98030.66
2022-11-22T07:53:51.444Z,98041.66
2022-11-22T07:56:18.364Z,98054.69
2022-11-22T07:58:45.086Z,98048.72
2022-11-22T08:01:14.056Z,98043.22
2022-11-22T08:03:41.661Z,98028.38
2022-11-22T08:06:10.082Z,98037.34
2022-11-22T08:08:37.319Z,98051.56
2022-11-22T08:11:05.393Z,98044.72
2022-11-22T08:13:32.814Z,98035.03
2022-11-22T08:16:13.723Z,98046.97
2022-11-22T08:18:41.950Z,98059.50
2022-11-22T08:21:10.892Z,98056.34
2022-11-22T08:23:38.078Z,98060.94
2022-11-22T08:26:06.045Z,98057.56
2022-11-22T08:28:32.904Z,98064.22
2022-11-22T08:31:05.563Z,98068.13
2022-11-22T08:33:32.795Z,98063.41
2022-11-22T08:35:59.544Z,98067.66
2022-11-22T08:38:26.971Z,98064.47
2022-11-22T08:40:53.695Z,98061.84
2022-11-22T08:43:21.800Z,98068.25
2022-11-22T08:45:59.137Z,98080.22
2022-11-22T08:48:27.046Z,98075.84
2022-11-22T08:50:56.775Z,98070.91
2022-11-22T08:53:24.702Z,98080.63
2022-11-22T08:55:51.825Z,98087.53
2022-11-22T08:58:18.837Z,98082.38
2022-11-22T09:00:45.539Z,98084.19
2022-11-22T09:03:12.508Z,98081.81
2022-11-22T09:08:26.541Z,98072.13
2022-11-22T09:10:54.584Z,98064.47
2022-11-22T09:13:21.250Z,98069.88
2022-11-22T09:15:47.869Z,98060.97
2022-11-22T09:18:14.519Z,98053.53
2022-11-22T09:20:41.090Z,98053.75
2022-11-22T09:23:07.719Z,98059.72
2022-11-22T09:25:34.338Z,98063.44
2022-11-22T09:28:03.180Z,98057.63
2022-11-22T09:30:31.040Z,98036.00
2022-11-22T09:32:57.677Z,98030.06
2022-11-22T09:35:24.477Z,98018.75
2022-11-22T09:37:51.096Z,98006.16
2022-11-22T09:40:17.739Z,97999.88
2022-11-22T09:42:52.109Z,98008.53
2022-11-22T09:45:41.030Z,98003.63
2022-11-22T09:48:32.501Z,98002.47
2022-11-22T09:51:01.931Z,97999.38
2022-11-22T09:53:38.297Z,98000.22
2022-11-22T09:56:11.758Z,98001.41
2022-11-22T09:58:58.538Z,97997.97
2022-11-22T10:01:34.912Z,98006.38
2022-11-22T10:04:08.621Z,97989.03
2022-11-22T10:06:40.220Z,97997.59
2022-11-22T10:09:29.169Z,97999.13
2022-11-22T10:12:15.624Z,97993.72
2022-11-22T10:14:53.071Z,97993.81
2022-11-22T10:17:41.701Z,97996.72
2022-11-22T10:20:21.639Z,97993.19
2022-11-22T10:22:48.882Z,97987.56
2022-11-22T10:25:22.180Z,97982.88
2022-11-22T10:28:00.373Z,97989.03
2022-11-22T10:30:34.792Z,97990.72
2022-11-22T10:33:43.992Z,98006.72
2022-11-22T10:36:29.559Z,97999.03
2022-11-22T10:39:19.527Z,98000.22
2022-11-22T10:41:46.105Z,98003.44
2022-11-22T10:44:21.869Z,97998.44
2022-11-22T10:47:10.027Z,97986.22
2022-11-22T10:49:55.364Z,97995.78
2022-11-22T10:52:31.595Z,97984.84
2022-11-22T10:54:58.162Z,97992.13
2022-11-22T10:57:34.189Z,98002.00
2022-11-22T11:00:22.939Z,97998.41
2022-11-22T11:03:10.776Z,97999.69
2022-11-22T11:06:15.711Z,97992.59
2022-11-22T11:09:02.727Z,97973.78
2022-11-22T11:11:27.261Z,97966.47
2022-11-22T11:13:58.518Z,97965.69
2022-11-22T11:16:30.201Z,97948.53
2022-11-22T11:19:12.080Z,97956.69
2022-11-22T11:21:38.681Z,97976.00
2022-11-22T11:24:14.312Z,97973.22
2022-11-22T11:26:43.718Z,97970.41
2022-11-22T11:29:19.206Z,97967.81
2022-11-22T11:31:48.636Z,97963.94
2022-11-22T11:34:23.164Z,97955.19
2022-11-22T11:36:51.232Z,97948.97
2022-11-22T11:39:22.202Z,97948.94
2022-11-22T11:41:49.416Z,97937.13
2022-11-22T11:44:36.358Z,97933.28
2022-11-22T11:47:04.601Z,97930.19
2022-11-22T11:49:35.103Z,97918.84
2022-11-22T11:52:39.045Z,97916.31
2022-11-22T11:55:06.276Z,97908.75
2022-11-22T11:57:37.293Z,97911.19
2022-11-22T12:00:07.184Z,97916.78
2022-11-22T12:02:40.916Z,97912.44
2022-11-22T12:05:26.280Z,97921.91
2022-11-22T12:07:52.949Z,97918.50
2022-11-22T12:10:36.325Z,97917.69
2022-11-22T12:13:27.477Z,97908.91
2022-11-22T12:16:12.654Z,97918.91
2022-11-22T12:18:44.272Z,97923.75
2022-11-22T12:21:33.485Z,97918.81
2022-11-22T12:27:05.337Z,97910.63
2022-11-22T12:29:37.537Z,97911.97
2022-11-22T12:32:16.499Z,97919.56
2022-11-22T12:34:46.109Z,97915.41
2022-11-22T12:37:18.304Z,97922.38
2022-11-22T12:39:53.498Z,97920.09
2022-11-22T12:42:35.042Z,97910.31
2022-11-22T12:45:06.609Z,97910.09
2022-11-22T12:47:40.076Z,97902.63
2022-11-22T12:50:17.548Z,97891.78
2022-11-22T12:53:07.276Z,97891.34
2022-11-22T12:55:48.145Z,97894.94
2022-11-22T12:58:21.374Z,97899.28
2022-11-22T13:01:22.765Z,97878.06
2022-11-22T13:04:01.810Z,97903.91
2022-11-22T13:06:42.050Z,97904.97
2022-11-22T13:09:14.187Z,97888.09
2022-11-22T13:11:45.598Z,97892.03
2022-11-22T13:14:25.608Z,97881.84
2022-11-22T13:16:53.927Z,97877.22
2022-11-22T13:19:24.222Z,97873.91
2022-11-22T13:22:16.762Z,97856.19
2022-11-22T13:25:13.276Z,97839.53
2022-11-22T13:27:44.945Z,97848.47
2022-11-22T13:30:39.663Z,97840.97
2022-11-22T13:33:22.779Z,97823.09
2022-11-22T13:35:49.408Z,97808.50
2022-11-22T13:38:18.195Z,97820.19
2022-11-22T13:40:52.801Z,97831.22
2022-11-22T13:43:22.479Z,97845.53
2022-11-22T13:45:53.389Z,97837.84
2022-11-22T13:48:41.897Z,97837.22
2022-11-22T13:51:09.601Z,97831.81
2022-11-22T13:53:44.083Z,97833.91
2022-11-22T13:56:16.855Z,97830.75
2022-11-22T13:58:50.732Z,97832.84
2022-11-22T14:01:34.542Z,97832.03
2022-11-22T14:04:16.408Z,97834.31
2022-11-22T14:06:53.333Z,97843.22
2022-11-22T14:09:38.460Z,97848.03
2022-11-22T14:12:04.975Z,97860.09
2022-11-22T14:14:34.275Z,97866.72
2022-11-22T14:17:41.791Z,97868.34
2022-11-22T14:20:43.470Z,97876.03
2022-11-22T14:23:19.265Z,97860.00
2022-11-22T14:26:01.095Z,97827.78
2022-11-22T14:28:39.839Z,97866.84
2022-11-22T14:31:20.527Z,97906.09
2022-11-22T14:34:29.747Z,97899.84
2022-11-22T14:37:34.876Z,97886.66
2022-11-22T14:40:30.481Z,97896.41
2022-11-22T14:42:59.709Z,97925.28
2022-11-22T14:45:38.295Z,97873.84
2022-11-22T14:48:19.738Z,97881.78
2022-11-22T14:50:55.050Z,97901.75
2022-11-22T14:53:34.475Z,97947.84
2022-11-22T14:56:06.046Z,97978.59
2022-11-22T14:58:38.576Z,97939.56
2022-11-22T15:01:14.980Z,97903.56
2022-11-22T15:09:14.161Z,97814.56
2022-11-22T15:09:16.586Z,97849.34
2022-11-22T15:10:23.340Z,97794.88
2022-11-22T15:13:17.581Z,97799.47
2022-11-22T15:59:43.241Z,97824.34
2022-11-22T16:02:18.214Z,97809.81
2022-11-22T16:06:09.440Z,97798.16
2022-11-22T16:07:48.330Z,97801.06
2022-11-22T16:10:39.843Z,97810.22
2022-11-22T16:13:32.571Z,97821.03
2022-11-22T16:16:13.804Z,97812.50
2022-11-22T16:18:41.227Z,97830.19
2022-11-22T16:21:11.432Z,97824.78
2022-11-22T16:23:42.189Z,97815.66
2022-11-22T16:26:18.066Z,97810.72
2022-11-22T16:28:46.217Z,97813.25
2022-11-22T16:31:27.761Z,97793.94
2022-11-22T16:33:55.435Z,97797.91
2022-11-22T16:36:24.145Z,97811.56
2022-11-22T16:38:51.330Z,97816.97
2022-11-22T16:41:23.790Z,97820.50
2022-11-22T16:43:54.454Z,97826.03
2022-11-22T16:46:21.532Z,97826.66
2022-11-22T16:48:48.704Z,97817.94
2022-11-22T16:51:22.911Z,97823.50
2022-11-22T16:53:51.257Z,97830.94
2022-11-22T16:56:19.552Z,97820.59
2022-11-22T16:58:47.647Z,97814.38
2022-11-22T17:01:16.385Z,97815.84
2022-11-22T17:03:45.088Z,97821.88
2022-11-22T17:06:26.863Z,97808.13
2022-11-22T17:08:55.639Z,97813.97
2022-11-22T17:11:27.630Z,97824.75
2022-11-22T17:13:54.516Z,97829.75
2022-11-22T17:16:21.233Z,97815.66
2022-11-22T17:18:48.410Z,97803.59
2022-11-22T17:21:37.951Z,97813.78
2022-11-22T17:24:07.433Z,97815.28
2022-11-22T17:26:34.851Z,97814.88
2022-11-22T17:29:01.866Z,97817.16
2022-11-22T17:31:29.155Z,97823.94
2022-11-22T17:33:58.209Z,97816.13
2022-11-22T17:36:31.832Z,97821.53
2022-11-22T17:38:59.993Z,97820.88
2022-11-22T17:41:27.200Z,97817.94
2022-11-22T17:43:54.006Z,97820.63
2022-11-22T17:46:20.741Z,97819.53
2022-11-22T17:49:02.019Z,97813.72
2022-11-22T17:51:29.346Z,97801.25
2022-11-22T17:53:58.249Z,97785.22
2022-11-22T17:56:29.905Z,97785.59
2022-11-22T17:58:56.546Z,97791.34
2022-11-22T18:01:23.827Z,97786.19
2022-11-22T18:03:50.676Z,97786.97
2022-11-22T18:06:18.949Z,97784.50
2022-11-22T18:08:47.391Z,97796.28
2022-11-22T18:11:15.011Z,97782.56
2022-11-22T18:13:42.165Z,97772.19
2022-11-22T18:16:13.723Z,97772.44
2022-11-22T18:18:57.430Z,97762.06
2022-11-22T18:21:24.896Z,97772.50
2022-11-22T18:23:51.659Z,97776.84
2022-11-22T18:31:52.844Z,97761.72
2022-11-22T18:34:20.614Z,97757.94
2022-11-22T18:37:04.205Z,97765.47
2022-11-22T18:39:34.802Z,97764.03
2022-11-22T18:42:02.172Z,97767.81
2022-11-22T18:44:28.823Z,97770.44
2022-11-22T18:46:55.573Z,97774.41
2022-11-22T18:49:22.284Z,97760.13
2022-11-22T18:51:48.904Z,97752.66
2022-11-22T18:54:16.101Z,97744.53
2022-11-22T18:56:42.669Z,97741.25
2022-11-22T18:59:12.721Z,97737.69
2022-11-22T19:01:40.716Z,97733.31
2022-11-22T19:04:07.504Z,97729.53
2022-11-22T19:06:34.153Z,97723.72
2022-11-22T19:09:01.249Z,97726.41
2022-11-22T19:11:30.027Z,97722.50
2022-11-22T19:13:57.003Z,97727.47
2022-11-22T19:16:23.909Z,97724.34
2022-11-22T19:18:50.615Z,97737.44
2022-11-22T19:21:22.873Z,97730.38
2022-11-22T19:23:50.320Z,97730.38
2022-11-22T19:26:20.582Z,97730.38
2022-11-22T19:28:48.660Z,97728.69
2022-11-22T19:31:18.022Z,97708.78
2022-11-22T19:33:45.699Z,97696.31
2022-11-22T19:36:17.938Z,97705.25
2022-11-22T19:38:45.545Z,97714.81
2022-11-22T19:41:17.153Z,97711.06
2022-11-22T19:43:44.637Z,97715.41
2022-11-22T19:46:11.766Z,97715.41
2022-11-22T19:48:43.781Z,97713.13
2022-11-22T19:51:15.479Z,97707.09
2022-11-22T19:53:42.273Z,97711.88
2022-11-22T19:56:14.617Z,97705.81
2022-11-22T19:58:42.284Z,97713.69
2022-11-22T20:01:11.025Z,97712.22
2022-11-22T20:03:41.200Z,97712.63
2022-11-22T20:06:10.049Z,97719.88
2022-11-22T20:08:37.423Z,97699.97
2022-11-22T20:11:10.045Z,97714.91
2022-11-22T20:13:39.849Z,97715.94
2022-11-22T20:16:13.784Z,97697.66
2022-11-22T20:18:40.380Z,97697.81
2022-11-22T20:21:09.298Z,97699.09
2022-11-22T20:23:36.560Z,97685.81
2022-11-22T20:26:05.268Z,97684.53
2022-11-22T20:28:31.981Z,97691.81
2022-11-22T20:31:10.325Z,97681.41
2022-11-22T20:33:39.692Z,97680.78
2022-11-22T20:36:08.884Z,97678.75
2022-11-22T20:38:44.821Z,97670.84
2022-11-22T20:41:13.092Z,97678.56
2022-11-22T20:43:40.238Z,97670.84
2022-11-22T20:46:12.481Z,97666.72
2022-11-22T20:48:40.432Z,97664.66
2022-11-22T20:51:10.193Z,97664.41
2022-11-22T20:53:37.602Z,97673.78
2022-11-22T20:56:04.849Z,97677.28
2022-11-22T20:58:32.485Z,97686.59
2022-11-22T21:00:59.457Z,97684.91
2022-11-22T21:03:27.383Z,97668.13
2022-11-22T21:05:55.347Z,97680.94
2022-11-22T21:08:23.121Z,97660.19
2022-11-22T21:10:50.024Z,97645.88
2022-11-22T21:13:16.668Z,97645.69
2022-11-22T21:15:43.668Z,97644.19
2022-11-22T21:18:25.026Z,97634.91
2022-11-22T21:20:52.044Z,97635.31
2022-11-22T21:23:18.621Z,97651.69
2022-11-22T21:25:46.294Z,97632.22
2022-11-22T21:28:12.916Z,97630.97
2022-11-22T21:30:39.799Z,97636.00
2022-11-22T21:33:06.427Z,97636.84
2022-11-22T21:35:33.028Z,97631.44
2022-11-22T21:37:59.581Z,97620.00
2022-11-22T21:40:26.203Z,97619.56
2022-11-22T21:42:52.777Z,97609.03
2022-11-22T21:45:19.332Z,97603.19
2022-11-22T21:47:48.317Z,97607.75
2022-11-22T21:50:15.443Z,97591.34
2022-11-22T21:52:42.536Z,97598.00
2022-11-22T21:55:09.853Z,97580.78
2022-11-22T21:57:36.522Z,97574.78
2022-11-22T22:00:04.890Z,97575.41
2022-11-22T22:02:32.802Z,97578.88
2022-11-22T22:04:59.477Z,97561.88
2022-11-22T22:07:51.935Z,97563.34
2022-11-22T22:10:13.271Z,97562.69
2022-11-22T22:12:40.939Z,97558.56
2022-11-22T22:15:11.244Z,97555.47
2022-11-22T22:17:37.868Z,97545.09
2022-11-22T22:20:05.354Z,97544.91
2022-11-22T22:22:35.328Z,97526.84
2022-11-22T22:25:01.920Z,97538.84
2022-11-22T22:27:31.450Z,97523.50
2022-11-22T22:29:58.589Z,97524.16
2022-11-22T22:32:25.795Z,97506.72
2022-11-22T22:34:52.945Z,97514.16
2022-11-22T22:37:19.946Z,97513.31
2022-11-22T22:39:46.680Z,97511.88
2022-11-22T22:42:14.136Z,97512.69
2022-11-22T22:44:40.719Z,97503.38
2022-11-22T22:47:07.290Z,97511.25
2022-11-22T22:49:34.011Z,97501.91
2022-11-22T22:52:00.658Z,97491.75
2022-11-22T22:54:27.256Z,97496.09
2022-11-22T22:56:53.808Z,97484.50
2022-11-22T22:59:20.418Z,97481.19
2022-11-22T23:01:47.024Z,97483.88
2022-11-22T23:04:13.657Z,97466.25
2022-11-22T23:06:40.381Z,97447.16
2022-11-22T23:09:10.074Z,97449.66
2022-11-22T23:11:55.744Z,97439.28
2022-11-22T23:14:25.350Z,97431.41
2022-11-22T23:16:57.040Z,97435.16
2022-11-22T23:19:24.977Z,97428.09
2022-11-22T23:21:51.768Z,97439.72
2022-11-22T23:24:18.423Z,97428.72
2022-11-22T23:26:45.342Z,97423.09
2022-11-22T23:29:12.308Z,97412.31
2022-11-22T23:31:38.898Z,97412.31
2022-11-22T23:34:05.617Z,97400.50
2022-11-22T23:36:36.062Z,97392.41
2022-11-22T23:39:05.781Z,97399.66
2022-11-22T23:41:32.352Z,97396.97
2022-11-22T23:43:58.923Z,97402.34
2022-11-22T23:46:27.969Z,97401.13
2022-11-22T23:48:57.342Z,97399.88
2022-11-22T23:51:25.154Z,97395.53
2022-11-22T23:54:00.175Z,97388.47
2022-11-22T23:56:28.176Z,97389.72
2022-11-22T23:58:54.886Z,97389.50
